Time;durP1;ratioP1;P1;durP2;ratioP2;P2;SDS_P1;SDS_P2;PMS_P1;PMS_P2;Temp;Humidity;BMP_temperature;BMP_pressure;BME280_temperature;BME280_humidity;BME280_pressure;Samples;Min_cycle;Max_cycle;Signal;HPM_P1;HPM_P2
2022/03/22 00:01:39;;;;;;;20.43;13.13;;;7.20;65.70;;;;;;5093232;28;20440;-57
2022/03/22 00:04:06;;;;;;;14.73;12.60;;;7.10;65.80;;;;;;5093026;28;20439;-57
2022/03/22 00:06:35;;;;;;;16.37;11.83;;;7.10;66.70;;;;;;5093178;28;20451;-57
2022/03/22 00:09:02;;;;;;;13.90;11.70;;;7.10;67.30;;;;;;5093237;28;20447;-57
2022/03/22 00:11:29;;;;;;;15.27;12.27;;;7.10;67.30;;;;;;5093329;28;20813;-57
2022/03/22 00:13:57;;;;;;;14.77;12.17;;;7.10;67.30;;;;;;5093210;28;20834;-57
2022/03/22 00:16:24;;;;;;;20.40;13.67;;;7.10;67.80;;;;;;5092725;28;20447;-57
2022/03/22 00:18:51;;;;;;;16.93;12.47;;;7.10;67.70;;;;;;5092969;28;20440;-57
2022/03/22 00:21:19;;;;;;;18.43;13.37;;;7.00;67.60;;;;;;5092776;28;21001;-57
2022/03/22 00:23:48;;;;;;;17.27;13.10;;;6.80;68.30;;;;;;5092806;28;20443;-56
2022/03/22 00:26:15;;;;;;;17.37;12.67;;;6.90;68.70;;;;;;5092898;28;20827;-56
2022/03/22 00:28:42;;;;;;;17.47;12.60;;;6.80;68.70;;;;;;5093060;28;20471;-57
2022/03/22 00:31:10;;;;;;;18.73;13.17;;;6.60;68.30;;;;;;5092648;28;20443;-57
2022/03/22 00:33:37;;;;;;;16.20;12.17;;;6.80;69.20;;;;;;5092986;28;20486;-57
2022/03/22 00:36:04;;;;;;;16.20;12.13;;;6.80;69.40;;;;;;5094338;28;20955;-57
2022/03/22 00:38:32;;;;;;;18.97;13.50;;;6.70;69.50;;;;;;5096334;28;21059;-57
2022/03/22 00:41:01;;;;;;;14.50;12.07;;;6.70;69.80;;;;;;5096598;28;20447;-56
2022/03/22 00:43:28;;;;;;;16.80;12.13;;;6.60;69.70;;;;;;5096941;28;20454;-56
2022/03/22 00:45:56;;;;;;;16.50;12.43;;;6.70;69.70;;;;;;5096272;28;20535;-57
2022/03/22 00:48:23;;;;;;;18.77;12.80;;;6.60;69.60;;;;;;5096494;28;20459;-56
2022/03/22 00:50:50;;;;;;;15.57;13.07;;;6.70;70.00;;;;;;5096628;28;20448;-57
2022/03/22 00:53:21;;;;;;;13.23;11.30;;;6.80;69.90;;;;;;5095915;28;20528;-57
2022/03/22 00:55:49;;;;;;;16.00;11.80;;;6.80;69.80;;;;;;5096331;28;20443;-57
2022/03/22 00:58:18;;;;;;;19.03;12.80;;;6.70;70.40;;;;;;5096432;28;20471;-57
2022/03/22 01:00:46;;;;;;;18.03;13.37;;;6.60;70.30;;;;;;5096098;28;20447;-57
2022/03/22 01:03:15;;;;;;;22.03;13.27;;;6.50;70.60;;;;;;5096191;28;20466;-57
2022/03/22 01:05:42;;;;;;;17.70;12.90;;;6.70;71.60;;;;;;5096256;28;20475;-62
2022/03/22 01:08:13;;;;;;;18.63;12.57;;;6.70;71.00;;;;;;5096230;28;20473;-57
2022/03/22 01:10:42;;;;;;;17.07;13.20;;;6.70;70.80;;;;;;5096154;28;20516;-57
2022/03/22 01:13:10;;;;;;;16.33;11.83;;;6.60;71.40;;;;;;5095791;28;20496;-57
2022/03/22 01:15:42;;;;;;;16.57;13.67;;;6.60;71.20;;;;;;5096084;28;20562;-57
2022/03/22 01:18:11;;;;;;;16.40;13.87;;;6.50;71.00;;;;;;5095616;28;20848;-57
2022/03/22 01:20:40;;;;;;;17.53;14.27;;;6.50;71.30;;;;;;5095271;28;20447;-57
2022/03/22 01:23:08;;;;;;;16.93;13.30;;;6.40;72.50;;;;;;5095622;28;20447;-57
2022/03/22 01:25:37;;;;;;;17.20;12.80;;;6.40;72.50;;;;;;5095588;28;20440;-57
2022/03/22 01:28:07;;;;;;;15.60;12.80;;;6.50;73.40;;;;;;5095378;28;20463;-57
2022/03/22 01:30:35;;;;;;;15.67;13.57;;;6.40;72.80;;;;;;5095355;28;20436;-57
2022/03/22 01:33:04;;;;;;;15.50;13.03;;;6.30;72.40;;;;;;5095754;28;20454;-56
2022/03/22 01:35:31;;;;;;;16.37;13.50;;;6.30;73.30;;;;;;5095515;28;20479;-57
2022/03/22 01:37:59;;;;;;;21.80;13.30;;;6.30;72.50;;;;;;5095210;28;20471;-57
2022/03/22 01:40:28;;;;;;;16.77;12.33;;;6.20;72.50;;;;;;5095320;28;20439;-57
2022/03/22 01:42:56;;;;;;;19.00;12.20;;;6.10;73.00;;;;;;5095436;28;20455;-57
2022/03/22 01:45:23;;;;;;;15.20;13.60;;;6.10;74.80;;;;;;5095423;28;20857;-58
2022/03/22 01:47:52;;;;;;;18.33;13.50;;;6.20;74.40;;;;;;5094387;28;20470;-57
2022/03/22 01:50:22;;;;;;;17.33;13.47;;;6.20;74.90;;;;;;5095166;28;20945;-57
2022/03/22 01:52:49;;;;;;;13.63;12.23;;;6.20;74.70;;;;;;5094832;28;20482;-57
2022/03/22 01:55:19;;;;;;;15.00;12.40;;;6.20;73.70;;;;;;5095086;28;20483;-57
2022/03/22 01:57:46;;;;;;;20.07;12.87;;;5.90;74.10;;;;;;5094934;28;20981;-56
2022/03/22 02:00:15;;;;;;;15.93;12.20;;;5.80;75.20;;;;;;5094726;28;20462;-57
2022/03/22 02:08:27;;;;;;;16.30;13.03;;;5.90;75.70;;;;;;5058163;28;20512;-57
2022/03/22 02:10:54;;;;;;;16.13;13.80;;;6.00;75.20;;;;;;5094632;28;20535;-57
2022/03/22 02:13:21;;;;;;;16.73;12.80;;;6.00;75.60;;;;;;5095018;28;20459;-57
2022/03/22 02:15:51;;;;;;;19.83;13.90;;;6.00;76.00;;;;;;5094414;28;20475;-57
2022/03/22 02:18:19;;;;;;;16.07;13.47;;;6.10;76.00;;;;;;5094394;28;21001;-57
2022/03/22 02:20:48;;;;;;;19.23;12.97;;;6.00;76.10;;;;;;5094779;28;20448;-57
2022/03/22 02:23:20;;;;;;;19.30;15.40;;;5.90;76.10;;;;;;5094333;28;20446;-57
2022/03/22 02:25:50;;;;;;;14.70;12.40;;;5.90;77.60;;;;;;5094361;28;20906;-57
2022/03/22 02:28:17;;;;;;;21.03;12.30;;;5.90;77.20;;;;;;5094279;28;20882;-57
2022/03/22 02:30:46;;;;;;;19.13;15.57;;;5.70;77.40;;;;;;5094612;28;20447;-57
2022/03/22 02:33:13;;;;;;;19.87;13.87;;;5.70;77.90;;;;;;5094171;28;20937;-57
2022/03/22 02:35:41;;;;;;;16.73;13.37;;;5.80;78.20;;;;;;5094059;28;20566;-57
2022/03/22 02:38:08;;;;;;;18.10;12.67;;;5.80;78.40;;;;;;5094671;28;20471;-57
2022/03/22 02:40:35;;;;;;;19.60;13.57;;;5.80;79.10;;;;;;5094415;28;20855;-57
2022/03/22 02:43:04;;;;;;;16.60;13.20;;;5.70;79.00;;;;;;5094086;28;20455;-57
2022/03/22 02:45:32;;;;;;;16.17;13.03;;;5.70;80.20;;;;;;5094423;28;20527;-57
2022/03/22 02:47:59;;;;;;;22.03;15.40;;;5.70;80.60;;;;;;5094135;28;20560;-57
2022/03/22 02:50:27;;;;;;;17.17;13.73;;;5.70;81.50;;;;;;5094198;28;20448;-57
2022/03/22 02:52:54;;;;;;;17.13;14.13;;;5.60;81.90;;;;;;5093856;28;20563;-57
2022/03/22 02:55:22;;;;;;;17.00;14.10;;;5.60;82.90;;;;;;5093704;28;20810;-57
2022/03/22 02:57:49;;;;;;;18.70;15.00;;;5.70;83.10;;;;;;5094003;28;20475;-57
2022/03/22 03:00:18;;;;;;;17.50;13.83;;;5.70;82.90;;;;;;5093761;28;20443;-57
2022/03/22 03:02:46;;;;;;;16.67;14.30;;;;;;;;;;5093798;28;21024;-57
2022/03/22 03:05:13;;;;;;;17.63;15.23;;;5.50;82.80;;;;;;5093937;28;20451;-56
2022/03/22 03:07:40;;;;;;;20.07;14.90;;;5.50;84.30;;;;;;5093826;28;20467;-56
2022/03/22 03:10:09;;;;;;;19.33;14.17;;;5.50;84.40;;;;;;5093978;28;20790;-57
2022/03/22 03:12:37;;;;;;;17.73;14.33;;;5.40;84.30;;;;;;5093758;28;20462;-56
2022/03/22 03:15:07;;;;;;;19.83;14.17;;;5.40;84.20;;;;;;5093351;28;20464;-56
2022/03/22 03:17:36;;;;;;;15.57;13.43;;;5.40;84.60;;;;;;5093848;28;20463;-57
2022/03/22 03:20:04;;;;;;;24.10;14.33;;;5.30;84.10;;;;;;5093714;28;20523;-57
2022/03/22 03:22:31;;;;;;;16.20;13.50;;;5.10;84.70;;;;;;5093360;28;20451;-57
2022/03/22 03:24:58;;;;;;;21.73;15.80;;;5.30;86.00;;;;;;5093507;28;20918;-56
2022/03/22 03:27:25;;;;;;;18.87;13.77;;;5.30;85.80;;;;;;5093577;28;20471;-57
2022/03/22 03:29:52;;;;;;;16.63;14.20;;;5.30;86.30;;;;;;5093203;28;20448;-56
2022/03/22 03:32:19;;;;;;;22.80;16.67;;;5.30;87.10;;;;;;5093710;28;20784;-57
2022/03/22 03:34:48;;;;;;;18.03;13.73;;;5.20;87.20;;;;;;5093469;28;20574;-56
2022/03/22 03:37:15;;;;;;;19.03;13.97;;;5.20;82.70;;;;;;5093096;28;20561;-56
2022/03/22 03:39:42;;;;;;;20.40;15.60;;;5.30;85.00;;;;;;5093626;28;20446;-57
2022/03/22 03:42:10;;;;;;;18.63;14.90;;;5.30;85.90;;;;;;5093550;28;20446;-57
2022/03/22 03:47:28;;;;;;;21.77;14.87;;;5.20;87.20;;;;;;5093210;28;20445;-57
2022/03/22 03:49:59;;;;;;;18.60;14.77;;;5.20;87.80;;;;;;5093469;28;20462;-56
2022/03/22 03:52:29;;;;;;;22.57;15.10;;;5.30;88.60;;;;;;5093054;28;20532;-56
2022/03/22 03:54:57;;;;;;;23.50;16.37;;;5.30;88.60;;;;;;5093289;28;20490;-56
2022/03/22 03:57:25;;;;;;;17.43;14.80;;;5.20;89.00;;;;;;5093294;28;20467;-57
2022/03/22 03:59:52;;;;;;;15.43;12.93;;;5.20;88.70;;;;;;5093311;28;20811;-57
2022/03/22 04:02:20;;;;;;;17.03;15.20;;;5.30;88.50;;;;;;5093138;28;20450;-57
2022/03/22 04:04:51;;;;;;;18.07;13.30;;;5.20;88.30;;;;;;5092956;28;20531;-56
2022/03/22 04:07:21;;;;;;;18.80;14.07;;;5.10;89.30;;;;;;5093201;28;20463;-56
2022/03/22 04:09:49;;;;;;;21.10;15.60;;;;;;;;;;5093355;28;20811;-56
2022/03/22 04:12:16;;;;;;;22.93;13.87;;;5.00;88.10;;;;;;5096406;28;20960;-57
2022/03/22 04:14:43;;;;;;;14.50;12.93;;;4.90;89.30;;;;;;5096974;28;20473;-56
2022/03/22 04:17:10;;;;;;;19.20;14.57;;;5.00;87.80;;;;;;5096873;28;20463;-56
2022/03/22 04:19:39;;;;;;;22.07;14.83;;;4.90;88.90;;;;;;5097069;28;20531;-56
2022/03/22 04:22:08;;;;;;;16.83;13.67;;;4.90;89.00;;;;;;5096970;28;20455;-56
2022/03/22 04:24:36;;;;;;;19.13;15.10;;;4.90;88.60;;;;;;5097143;28;20443;-56
2022/03/22 04:32:45;;;;;;;19.33;15.50;;;4.90;89.70;;;;;;5096672;28;20399;-57
2022/03/22 04:35:14;;;;;;;16.40;14.00;;;4.90;89.00;;;;;;5096467;28;20463;-56
2022/03/22 04:37:41;;;;;;;21.90;13.80;;;4.80;89.80;;;;;;5096350;28;20529;-57
2022/03/22 04:40:10;;;;;;;23.63;14.63;;;4.90;89.40;;;;;;5096518;28;20444;-56
2022/03/22 04:42:38;;;;;;;15.37;13.77;;;4.90;89.50;;;;;;5096498;28;20462;-57
2022/03/22 04:45:06;;;;;;;16.97;11.83;;;5.00;89.30;;;;;;5096641;28;20511;-56
2022/03/22 04:47:35;;;;;;;15.00;12.17;;;5.00;88.40;;;;;;5096566;28;20459;-56
2022/03/22 04:50:02;;;;;;;19.20;12.77;;;4.90;87.60;;;;;;5096680;28;20439;-57
2022/03/22 04:58:02;;;;;;;17.30;13.33;;;4.70;88.90;;;;;;5096104;28;20446;-57
2022/03/22 05:00:29;;;;;;;18.13;13.43;;;4.70;88.90;;;;;;5095887;28;20455;-56
2022/03/22 05:02:56;;;;;;;23.17;14.63;;;4.70;89.00;;;;;;5096344;28;20546;-56
2022/03/22 05:08:05;;;;;;;18.10;12.70;;;4.80;87.40;;;;;;5095708;28;20973;-57
2022/03/22 05:10:34;;;;;;;18.13;13.80;;;4.80;87.30;;;;;;5095778;28;20937;-57
2022/03/22 05:13:01;;;;;;;21.60;15.63;;;4.80;87.30;;;;;;5096037;28;20453;-57
2022/03/22 05:15:28;;;;;;;20.50;15.33;;;4.70;86.10;;;;;;5095941;28;20483;-57
2022/03/22 05:17:57;;;;;;;17.43;15.53;;;4.70;86.60;;;;;;5095583;28;20477;-57
2022/03/22 05:20:24;;;;;;;20.53;14.40;;;4.70;86.80;;;;;;5095664;28;20439;-57
2022/03/22 05:22:51;;;;;;;19.40;15.20;;;4.70;86.60;;;;;;5095448;28;20814;-57
2022/03/22 05:25:18;;;;;;;24.10;16.53;;;4.60;86.40;;;;;;5095637;28;20447;-57
2022/03/22 05:27:47;;;;;;;25.37;17.47;;;4.60;86.80;;;;;;5095513;28;20820;-57
2022/03/22 05:30:14;;;;;;;23.00;14.70;;;4.50;87.40;;;;;;5095710;28;20869;-57
2022/03/22 05:32:42;;;;;;;22.60;15.50;;;4.60;87.20;;;;;;5095348;28;20451;-57
2022/03/22 05:35:10;;;;;;;23.93;17.27;;;4.50;87.60;;;;;;5095661;28;20479;-56
2022/03/22 05:37:37;;;;;;;20.43;15.23;;;4.50;88.20;;;;;;5095142;28;20506;-55
2022/03/22 05:40:05;;;;;;;19.93;15.40;;;4.50;88.40;;;;;;5095183;28;20443;-55
2022/03/22 05:42:37;;;;;;;18.53;13.50;;;4.60;89.00;;;;;;5095527;28;20459;-58
2022/03/22 05:45:08;;;;;;;17.30;14.73;;;4.60;89.50;;;;;;5095811;28;20443;-56
2022/03/22 05:47:36;;;;;;;18.50;13.13;;;4.60;89.10;;;;;;5094999;28;20562;-57
2022/03/22 05:50:05;;;;;;;17.87;15.83;;;4.60;89.70;;;;;;5094872;28;20968;-57
2022/03/22 05:52:33;;;;;;;20.30;15.20;;;4.60;89.90;;;;;;5095039;28;20475;-56
2022/03/22 05:55:00;;;;;;;19.30;15.20;;;4.60;90.20;;;;;;5095182;28;20570;-56
2022/03/22 05:57:27;;;;;;;18.00;15.13;;;4.50;90.30;;;;;;5094680;28;20546;-55
2022/03/22 05:59:54;;;;;;;18.40;13.80;;;4.50;90.60;;;;;;5095252;28;20526;-59
2022/03/22 06:02:23;;;;;;;19.03;14.20;;;4.60;90.60;;;;;;5094523;28;20494;-56
2022/03/22 06:04:50;;;;;;;17.87;14.77;;;4.60;90.90;;;;;;5094897;28;20448;-56
2022/03/22 06:07:22;;;;;;;17.73;15.17;;;4.70;90.90;;;;;;5094938;28;20819;-56
2022/03/22 06:09:49;;;;;;;18.43;14.00;;;4.70;90.60;;;;;;5095086;28;20428;-56
2022/03/22 06:12:18;;;;;;;21.37;16.47;;;4.70;90.40;;;;;;5094264;28;20443;-56
2022/03/22 06:14:45;;;;;;;20.10;15.47;;;4.70;90.70;;;;;;5094393;28;20439;-56
2022/03/22 06:17:12;;;;;;;17.50;14.03;;;4.70;90.70;;;;;;5094792;28;20873;-56
2022/03/22 06:19:41;;;;;;;20.57;15.50;;;4.70;90.90;;;;;;5094203;28;20475;-56
2022/03/22 06:22:08;;;;;;;19.53;14.80;;;4.70;91.00;;;;;;5094571;28;20448;-58
2022/03/22 06:24:35;;;;;;;22.73;17.10;;;4.70;90.80;;;;;;5094325;28;20541;-56
2022/03/22 06:27:02;;;;;;;22.47;14.67;;;4.70;90.40;;;;;;5094511;28;20467;-56
2022/03/22 06:29:29;;;;;;;15.53;13.93;;;4.70;90.40;;;;;;5094560;28;20475;-56
2022/03/22 06:31:56;;;;;;;20.90;15.50;;;4.80;90.40;;;;;;5093924;28;20926;-56
2022/03/22 06:34:23;;;;;;;18.67;15.13;;;4.90;90.30;;;;;;5093613;28;20444;-56
2022/03/22 06:36:52;;;;;;;20.20;14.53;;;5.00;90.40;;;;;;5093794;28;20846;-56
2022/03/22 06:39:19;;;;;;;21.77;15.20;;;5.10;90.20;;;;;;5093967;28;20444;-57
2022/03/22 06:41:46;;;;;;;24.30;16.00;;;5.30;89.80;;;;;;5093832;28;20795;-56
2022/03/22 06:44:13;;;;;;;26.00;16.27;;;5.40;89.60;;;;;;5094074;28;20459;-56
2022/03/22 06:46:41;;;;;;;30.90;16.10;;;5.50;88.40;;;;;;5094062;28;20774;-56
2022/03/22 06:49:08;;;;;;;22.13;16.53;;;5.50;87.70;;;;;;5093732;28;20443;-56
2022/03/22 06:51:35;;;;;;;20.40;13.90;;;5.60;87.40;;;;;;5093426;28;20836;-56
2022/03/22 06:54:04;;;;;;;19.73;14.50;;;5.60;86.70;;;;;;5093611;28;20512;-57
2022/03/22 06:56:31;;;;;;;19.07;15.57;;;5.70;86.50;;;;;;5093831;28;20482;-57
2022/03/22 06:58:59;;;;;;;18.53;14.80;;;5.70;85.80;;;;;;5093478;28;20595;-57
2022/03/22 07:01:26;;;;;;;17.63;14.40;;;5.70;86.20;;;;;;5093333;28;20934;-56
2022/03/22 07:03:54;;;;;;;20.47;15.10;;;5.70;84.80;;;;;;5093154;28;20443;-56
2022/03/22 07:06:21;;;;;;;19.87;15.10;;;5.80;84.10;;;;;;5093399;28;20872;-56
2022/03/22 07:08:48;;;;;;;20.00;15.80;;;5.90;83.50;;;;;;5093556;28;20464;-57
2022/03/22 07:14:02;;;;;;;18.17;15.70;;;6.10;83.90;;;;;;5093697;28;20548;-56
2022/03/22 07:16:30;;;;;;;19.93;16.33;;;6.10;83.40;;;;;;5093117;28;20973;-56
2022/03/22 07:18:57;;;;;;;23.30;15.97;;;6.10;83.90;;;;;;5093274;28;20450;-57
2022/03/22 07:21:24;;;;;;;25.43;16.10;;;6.20;84.30;;;;;;5093124;28;20443;-56
2022/03/22 07:23:51;;;;;;;22.73;17.43;;;6.30;85.00;;;;;;5093278;28;20576;-56
2022/03/22 07:26:20;;;;;;;26.90;17.50;;;6.30;83.60;;;;;;5092890;28;20812;-57
2022/03/22 07:28:48;;;;;;;21.53;16.60;;;6.30;82.80;;;;;;5093393;28;20471;-58
2022/03/22 07:31:15;;;;;;;23.80;16.60;;;6.30;82.90;;;;;;5093217;28;20451;-57
2022/03/22 07:33:42;;;;;;;25.07;16.20;;;6.40;83.80;;;;;;5092745;28;20942;-57
2022/03/22 07:36:09;;;;;;;24.17;16.30;;;6.50;83.20;;;;;;5092761;28;20478;-57
2022/03/22 07:38:36;;;;;;;21.90;16.80;;;6.60;81.70;;;;;;5092688;28;20471;-57
2022/03/22 07:41:07;;;;;;;20.70;16.90;;;6.50;80.60;;;;;;5092698;28;20453;-57
2022/03/22 07:43:37;;;;;;;19.37;15.90;;;6.40;81.20;;;;;;5093077;28;20863;-57
2022/03/22 07:46:04;;;;;;;24.47;17.10;;;6.50;81.70;;;;;;5095567;28;20524;-57
2022/03/22 07:48:31;;;;;;;23.13;15.83;;;6.60;79.90;;;;;;5097037;28;20981;-58
2022/03/22 07:53:44;;;;;;;22.30;16.37;;;6.80;78.50;;;;;;5097023;28;20485;-58
2022/03/22 07:56:11;;;;;;;22.13;15.60;;;7.00;79.00;;;;;;5097215;28;20482;-59
2022/03/22 07:58:41;;;;;;;21.63;15.57;;;7.00;77.60;;;;;;5097234;28;20467;-56
2022/03/22 08:01:08;;;;;;;17.50;15.63;;;7.00;77.80;;;;;;5096910;28;21022;-56
2022/03/22 08:03:35;;;;;;;26.37;16.77;;;7.10;78.90;;;;;;5096640;28;20451;-56
2022/03/22 08:06:07;;;;;;;24.83;16.63;;;7.30;79.00;;;;;;5096536;28;20889;-56
2022/03/22 08:08:37;;;;;;;20.70;16.60;;;7.40;77.10;;;;;;5096454;28;20467;-59
2022/03/22 08:11:06;;;;;;;24.47;15.00;;;7.50;77.40;;;;;;5096509;28;20500;-57
2022/03/22 08:13:34;;;;;;;25.33;16.47;;;7.60;76.50;;;;;;5097127;28;20462;-57
2022/03/22 08:16:03;;;;;;;22.87;17.30;;;7.70;76.70;;;;;;5096403;28;20528;-57
2022/03/22 08:18:30;;;;;;;18.70;15.13;;;7.80;76.00;;;;;;5096388;28;20472;-57
2022/03/22 08:20:57;;;;;;;19.73;16.20;;;7.90;77.80;;;;;;5096908;28;20855;-57
2022/03/22 08:23:25;;;;;;;21.83;15.40;;;8.00;75.50;;;;;;5096702;28;20453;-57
2022/03/22 08:25:52;;;;;;;20.53;17.13;;;8.10;75.10;;;;;;5096520;28;20526;-58
2022/03/22 08:28:21;;;;;;;22.40;14.83;;;8.20;76.00;;;;;;5096770;28;20466;-57
2022/03/22 08:30:48;;;;;;;21.70;16.20;;;8.30;74.10;;;;;;5096510;28;20454;-57
2022/03/22 08:33:17;;;;;;;25.40;18.47;;;8.40;73.40;;;;;;5096105;28;20637;-57
2022/03/22 08:35:47;;;;;;;21.83;17.57;;;8.60;75.50;;;;;;5096595;28;20556;-57
2022/03/22 08:38:14;;;;;;;19.17;15.70;;;8.60;74.70;;;;;;5096464;28;20471;-57
2022/03/22 08:40:42;;;;;;;20.50;18.17;;;8.80;75.50;;;;;;5096061;28;20471;-57
2022/03/22 08:43:09;;;;;;;22.67;16.80;;;8.80;74.20;;;;;;5096039;28;20532;-55
2022/03/22 08:45:37;;;;;;;23.43;18.07;;;8.80;74.50;;;;;;5096145;28;20447;-55
2022/03/22 08:48:09;;;;;;;22.90;18.17;;;8.80;75.30;;;;;;5095804;28;20574;-56
2022/03/22 08:50:39;;;;;;;20.93;17.63;;;8.90;74.80;;;;;;5095927;28;20452;-57
2022/03/22 08:53:06;;;;;;;24.33;17.47;;;9.00;73.70;;;;;;5095776;28;20496;-57
2022/03/22 08:55:34;;;;;;;17.90;15.13;;;9.20;73.20;;;;;;5095617;28;20520;-57
2022/03/22 08:58:05;;;;;;;22.17;16.67;;;9.40;73.30;;;;;;5095577;28;20455;-57
2022/03/22 09:00:33;;;;;;;22.30;16.40;;;9.70;72.20;;;;;;5096143;28;20494;-57
2022/03/22 09:03:01;;;;;;;25.50;18.63;;;9.80;72.20;;;;;;5095583;28;20447;-57
2022/03/22 09:08:15;;;;;;;24.03;18.07;;;9.70;68.90;;;;;;5095632;28;20443;-57
2022/03/22 09:10:43;;;;;;;26.73;17.60;;;9.80;71.50;;;;;;5095536;28;20439;-58
2022/03/22 09:13:10;;;;;;;18.10;15.70;;;9.90;72.10;;;;;;5095966;28;20451;-57
2022/03/22 09:15:39;;;;;;;24.23;16.10;;;10.00;69.40;;;;;;5095530;28;20629;-57
2022/03/22 09:18:13;;;;;;;23.53;17.00;;;10.20;69.50;;;;;;5095362;28;21005;-57
2022/03/22 09:20:41;;;;;;;21.77;16.23;;;10.20;68.40;;;;;;5095978;28;20451;-58
2022/03/22 09:23:09;;;;;;;22.40;16.50;;;10.20;68.60;;;;;;5095519;28;20534;-58
2022/03/22 09:25:39;;;;;;;26.47;17.63;;;10.30;68.00;;;;;;5095300;28;20443;-58
2022/03/22 09:28:07;;;;;;;19.13;16.37;;;10.50;67.40;;;;;;5095698;28;20466;-57
2022/03/22 09:30:35;;;;;;;24.03;16.90;;;11.00;66.70;;;;;;5095311;28;20537;-58
2022/03/22 09:33:04;;;;;;;25.93;17.73;;;12.20;65.90;;;;;;5094923;28;20960;-58
2022/03/22 09:35:32;;;;;;;21.97;16.47;;;13.30;65.40;;;;;;5095154;28;20786;-58
2022/03/22 09:38:00;;;;;;;19.53;15.80;;;14.30;60.70;;;;;;5095071;28;20999;-57
2022/03/22 09:40:28;;;;;;;21.23;17.83;;;15.40;60.00;;;;;;5094998;28;20500;-57
2022/03/22 09:42:56;;;;;;;20.47;18.27;;;16.20;58.40;;;;;;5095035;28;20455;-57
2022/03/22 09:45:26;;;;;;;22.10;17.43;;;16.70;57.20;;;;;;5095077;28;20987;-57
2022/03/22 09:47:54;;;;;;;20.20;17.70;;;16.60;55.90;;;;;;5095036;28;20462;-57
2022/03/22 09:51:44;;;;;;;19.17;17.17;;;17.10;55.60;;;;;;5094703;28;20479;-58
2022/03/22 09:53:09;;;;;;;20.57;17.90;;;17.20;55.40;;;;;;5093698;28;20836;-58
2022/03/22 09:55:36;;;;;;;21.70;19.30;;;17.40;55.30;;;;;;5094654;28;20443;-58
2022/03/22 09:58:05;;;;;;;29.10;19.30;;;18.10;53.90;;;;;;5094519;28;20483;-58
2022/03/22 10:00:33;;;;;;;29.07;19.70;;;18.80;53.70;;;;;;5094396;28;20817;-58
2022/03/22 10:03:00;;;;;;;39.40;20.93;;;19.20;52.50;;;;;;5094766;28;20447;-58
2022/03/22 10:05:28;;;;;;;26.57;18.70;;;19.30;52.40;;;;;;5094973;28;20447;-58
2022/03/22 10:08:00;;;;;;;19.47;16.90;;;19.30;51.30;;;;;;5093944;28;20486;-58
2022/03/22 10:10:28;;;;;;;26.60;21.50;;;19.60;50.30;;;;;;5094670;28;20856;-58
2022/03/22 10:13:01;;;;;;;23.87;18.27;;;18.20;49.70;;;;;;5094733;28;20550;-58
2022/03/22 10:15:35;;;;;;;27.63;19.23;;;17.80;50.20;;;;;;5094174;28;20482;-57
2022/03/22 10:18:07;;;;;;;23.20;17.37;;;18.00;50.10;;;;;;5094418;28;20515;-58
2022/03/22 10:20:36;;;;;;;19.00;16.57;;;18.40;50.00;;;;;;5094182;28;20785;-58
2022/03/22 10:23:06;;;;;;;23.83;18.73;;;19.20;49.00;;;;;;5094120;28;20454;-58
2022/03/22 10:25:35;;;;;;;22.70;18.30;;;19.50;48.70;;;;;;5094607;28;20447;-58
2022/03/22 10:28:04;;;;;;;23.10;18.73;;;20.00;48.20;;;;;;5093879;28;20499;-58
2022/03/22 10:30:34;;;;;;;25.83;18.87;;;19.30;48.50;;;;;;5094086;28;20466;-59
2022/03/22 10:33:02;;;;;;;20.43;16.60;;;19.40;48.30;;;;;;5094175;28;20452;-58
2022/03/22 10:35:30;;;;;;;17.60;15.40;;;19.70;46.40;;;;;;5093566;28;20538;-58
2022/03/22 10:37:59;;;;;;;21.73;16.67;;;19.60;46.40;;;;;;5094032;28;20993;-58
2022/03/22 10:40:29;;;;;;;19.00;16.27;;;19.60;46.20;;;;;;5093866;28;20447;-58
2022/03/22 10:42:58;;;;;;;18.23;16.13;;;19.80;45.30;;;;;;5094121;28;20451;-59
2022/03/22 10:45:28;;;;;;;19.90;16.17;;;;;;;;;;5093712;28;20504;-58
2022/03/22 10:47:58;;;;;;;19.10;17.20;;;20.50;45.70;;;;;;5093445;28;20475;-58
2022/03/22 10:50:25;;;;;;;20.93;16.50;;;21.00;44.40;;;;;;5093871;28;20487;-57
2022/03/22 10:52:55;;;;;;;17.00;15.17;;;20.10;43.60;;;;;;5093093;28;20521;-57
2022/03/22 10:55:24;;;;;;;19.10;16.40;;;19.80;43.00;;;;;;5093630;28;20443;-57
2022/03/22 10:57:59;;;;;;;18.40;16.47;;;19.40;43.20;;;;;;5093382;28;20578;-57
2022/03/22 11:00:27;;;;;;;17.40;15.60;;;20.00;44.00;;;;;;5089566;28;20512;-57
2022/03/22 11:02:58;;;;;;;18.33;16.53;;;20.40;43.70;;;;;;5092897;28;20956;-57
2022/03/22 11:05:28;;;;;;;16.07;14.47;;;;;;;;;;5093933;28;20842;-57
2022/03/22 11:07:56;;;;;;;19.30;15.70;;;21.20;43.30;;;;;;5093342;28;20559;-57
2022/03/22 11:10:29;;;;;;;18.10;16.30;;;21.50;42.70;;;;;;5093000;28;20447;-57
2022/03/22 11:12:57;;;;;;;21.77;16.63;;;;;;;;;;5093299;28;20509;-57
2022/03/22 11:15:26;;;;;;;21.50;16.10;;;22.20;42.80;;;;;;5093327;28;20447;-57
2022/03/22 11:17:55;;;;;;;16.73;15.07;;;21.30;42.10;;;;;;5093225;28;20566;-57
2022/03/22 11:20:27;;;;;;;18.67;16.67;;;21.30;41.50;;;;;;5092761;28;20454;-57
2022/03/22 11:22:56;;;;;;;17.80;15.97;;;21.90;41.50;;;;;;5093067;28;20922;-57
2022/03/22 11:25:31;;;;;;;17.40;15.73;;;21.80;41.10;;;;;;5093072;28;20482;-57
2022/03/22 11:27:59;;;;;;;19.33;17.27;;;21.90;41.60;;;;;;5093162;28;20470;-57
2022/03/22 11:30:31;;;;;;;17.30;15.50;;;22.10;41.50;;;;;;5093307;28;20451;-57
2022/03/22 11:35:53;;;;;;;18.10;15.20;;;22.80;41.40;;;;;;5093033;28;20488;-57
2022/03/22 11:38:45;;;;;;;18.53;16.27;;;22.60;40.80;;;;;;5093015;28;20582;-58
2022/03/22 11:44:16;;;;;;;17.70;15.93;;;22.20;41.20;;;;;;5093658;28;20433;-58
2022/03/22 11:46:44;;;;;;;17.93;14.57;;;22.70;39.90;;;;;;5092787;28;20451;-58
2022/03/22 11:49:13;;;;;;;17.40;15.63;;;22.30;40.20;;;;;;5093359;28;20818;-58
2022/03/22 11:51:50;;;;;;;16.77;14.67;;;22.70;41.10;;;;;;5092619;28;20475;-58
2022/03/22 11:54:17;;;;;;;21.00;16.90;;;22.20;39.90;;;;;;5092842;28;20434;-58
2022/03/22 11:56:49;;;;;;;19.27;16.40;;;22.70;40.40;;;;;;5092463;28;20467;-58
2022/03/22 11:59:17;;;;;;;22.30;18.00;;;22.90;39.90;;;;;;5092893;28;20443;-58
2022/03/22 12:02:02;;;;;;;17.40;15.70;;;22.70;40.20;;;;;;5093410;28;20833;-59
2022/03/22 12:04:41;;;;;;;19.03;16.93;;;22.60;39.90;;;;;;5092799;28;20432;-60
2022/03/22 12:07:12;;;;;;;18.70;15.47;;;22.60;40.80;;;;;;5092597;28;20546;-59
2022/03/22 12:09:40;;;;;;;19.00;16.57;;;22.90;40.00;;;;;;5093040;28;20460;-58
2022/03/22 12:12:09;;;;;;;18.70;15.70;;;22.10;39.00;;;;;;5092814;28;20469;-59
2022/03/22 12:14:37;;;;;;;19.83;16.67;;;22.30;39.50;;;;;;5092875;28;20439;-59
2022/03/22 12:17:06;;;;;;;21.37;16.50;;;22.00;38.60;;;;;;5092596;28;20955;-60
2022/03/22 12:19:35;;;;;;;20.23;15.80;;;22.60;40.20;;;;;;5092885;28;20475;-59
2022/03/22 12:22:04;;;;;;;21.67;16.07;;;23.20;39.60;;;;;;5092527;28;20447;-58
2022/03/22 12:24:34;;;;;;;16.60;14.93;;;23.60;38.70;;;;;;5092530;28;20530;-57
2022/03/22 12:27:03;;;;;;;21.63;16.90;;;23.50;39.30;;;;;;5092422;28;20977;-58
2022/03/22 12:29:30;;;;;;;19.03;16.90;;;23.60;39.20;;;;;;5092632;28;20482;-57
2022/03/22 12:32:06;;;;;;;18.77;16.57;;;22.60;38.50;;;;;;5094058;28;20451;-57
2022/03/22 12:34:36;;;;;;;24.30;18.43;;;22.20;39.50;;;;;;5096022;28;20474;-57
2022/03/22 12:37:07;;;;;;;21.37;16.40;;;21.90;39.30;;;;;;5096471;28;20455;-57
2022/03/22 12:39:37;;;;;;;18.10;16.20;;;22.30;38.60;;;;;;5096617;28;20432;-57
2022/03/22 12:42:05;;;;;;;17.73;15.83;;;22.60;38.10;;;;;;5096521;28;20439;-58
2022/03/22 12:44:33;;;;;;;22.00;16.10;;;22.70;38.60;;;;;;5096411;28;20444;-58
2022/03/22 12:47:00;;;;;;;18.60;16.13;;;22.50;38.30;;;;;;5096159;28;20474;-58
2022/03/22 12:49:28;;;;;;;18.07;15.40;;;22.90;39.80;;;;;;5096486;28;20505;-58
2022/03/22 12:51:56;;;;;;;20.00;16.90;;;22.90;39.10;;;;;;5095720;28;20474;-58
2022/03/22 12:54:23;;;;;;;19.90;16.57;;;22.20;37.50;;;;;;5095776;28;20428;-58
2022/03/22 12:56:52;;;;;;;20.53;18.33;;;21.60;38.00;;;;;;5096002;28;20506;-57
2022/03/22 12:59:21;;;;;;;21.40;16.40;;;21.90;39.50;;;;;;5095896;28;20479;-57
2022/03/22 13:01:57;;;;;;;21.77;18.50;;;22.30;39.50;;;;;;5095791;28;20454;-58
2022/03/22 13:04:26;;;;;;;21.33;16.87;;;22.30;38.70;;;;;;5095479;28;20438;-58
2022/03/22 13:06:59;;;;;;;17.10;15.37;;;22.20;39.60;;;;;;5095563;28;20475;-59
2022/03/22 13:12:15;;;;;;;18.50;16.10;;;22.20;38.00;;;;;;5095472;28;20786;-59
2022/03/22 13:17:29;;;;;;;18.17;15.37;;;22.30;37.60;;;;;;5095488;28;20474;-59
2022/03/22 13:19:57;;;;;;;19.23;15.40;;;21.90;38.40;;;;;;5095440;28;20950;-59
2022/03/22 13:22:27;;;;;;;24.20;16.83;;;21.70;38.10;;;;;;5095402;28;20462;-58
2022/03/22 13:25:05;;;;;;;16.37;14.70;;;21.50;38.10;;;;;;5094903;28;21013;-59